Time,TemperatureF,DewpointF,PressureIn,WindDirection,WindDirectionDegrees,WindSpeedMPH,WindSpeedGustMPH,Humidity,HourlyPrecipIn,Conditions,Clouds,dailyrainin,SolarRadiationWatts/m^2,SoftwareType,DateUTC
2013-06-23 00:09:00,71.6,59.0,29.59,WNW,284,9.0,14.0,64,0.00,,,0.00,0,weatherlink.com 1.10,2013-06-23 05:09:00,
2013-06-23 00:24:00,69.3,60.0,29.57,North,5,0.0,9.0,72,0.00,,,0.00,0,weatherlink.com 1.10,2013-06-23 05:24:00,
2013-06-23 00:39:00,69.8,61.0,29.58,NNE,12,0.0,0.0,73,0.00,,,0.00,0,weatherlink.com 1.10,2013-06-23 05:39:00,
2013-06-23 00:54:00,71.0,62.0,29.58,NNW,346,0.0,3.0,72,0.00,,,0.00,0,weatherlink.com 1.10,2013-06-23 05:54:00,
2013-06-23 01:09:00,70.8,62.0,29.58,NNW,334,0.0,0.0,74,0.00,,,0.00,0,weatherlink.com 1.10,2013-06-23 06:09:00,
2013-06-23 01:24:00,70.9,62.0,29.60,North,351,0.0,7.0,73,0.00,,,0.00,0,weatherlink.com 1.10,2013-06-23 06:24:00,
2013-06-23 01:39:00,70.3,59.0,29.61,North,360,0.0,10.0,67,0.00,,,0.00,0,weatherlink.com 1.10,2013-06-23 06:39:00,
2013-06-23 01:54:00,70.9,55.0,29.62,NNE,21,2.0,8.0,58,0.00,,,0.00,0,weatherlink.com 1.10,2013-06-23 06:54:00,
2013-06-23 02:09:00,70.5,55.0,29.62,ENE,61,4.0,14.0,58,0.00,,,0.00,0,weatherlink.com 1.10,2013-06-23 07:09:00,
2013-06-23 02:24:00,69.9,54.0,29.62,ENE,60,12.0,17.0,58,0.00,,,0.00,0,weatherlink.com 1.10,2013-06-23 07:24:00,
2013-06-23 02:39:00,69.3,55.0,29.64,NNE,19,3.0,15.0,61,0.00,,,0.00,0,weatherlink.com 1.10,2013-06-23 07:39:00,
2013-06-23 02:54:00,69.0,55.0,29.63,ENE,62,2.0,10.0,61,0.00,,,0.00,0,weatherlink.com 1.10,2013-06-23 07:54:00,
2013-06-23 03:09:00,68.6,55.0,29.62,NE,34,8.0,14.0,63,0.00,,,0.00,0,weatherlink.com 1.10,2013-06-23 08:09:00,
2013-06-23 03:24:00,66.9,57.0,29.61,NE,48,10.0,22.0,70,0.00,,,0.00,0,weatherlink.com 1.10,2013-06-23 08:24:00,
2013-06-23 03:39:00,65.6,56.0,29.62,NE,41,13.0,17.0,72,0.00,,,0.00,0,weatherlink.com 1.10,2013-06-23 08:39:00,
2013-06-23 03:54:00,65.6,56.0,29.61,East,80,9.0,17.0,70,0.00,,,0.00,0,weatherlink.com 1.10,2013-06-23 08:54:00,
2013-06-23 04:09:00,65.4,55.0,29.62,ENE,78,12.0,16.0,70,0.00,,,0.00,0,weatherlink.com 1.10,2013-06-23 09:09:00,
2013-06-23 04:24:00,64.5,56.0,29.62,East,88,13.0,17.0,74,0.00,,,0.00,0,weatherlink.com 1.10,2013-06-23 09:24:00,
2013-06-23 04:40:00,63.9,57.0,29.63,ENE,70,5.0,21.0,77,0.00,,,0.00,0,weatherlink.com 1.10,2013-06-23 09:40:00,
2013-06-23 04:55:00,63.9,57.0,29.63,East,86,13.0,19.0,77,0.00,,,0.00,0,weatherlink.com 1.10,2013-06-23 09:55:00,
2013-06-23 05:10:00,63.8,56.0,29.64,East,89,9.0,14.0,76,0.00,,,0.00,0,weatherlink.com 1.10,2013-06-23 10:10:00,
2013-06-23 05:25:00,63.6,56.0,29.64,East,100,1.0,10.0,76,0.00,,,0.00,0,weatherlink.com 1.10,2013-06-23 10:25:00,
2013-06-23 05:40:00,63.1,56.0,29.64,ESE,110,0.0,10.0,77,0.00,,,0.00,0,weatherlink.com 1.10,2013-06-23 10:40:00,
2013-06-23 05:55:00,62.6,56.0,29.64,ESE,108,0.0,8.0,79,0.00,,,0.00,0,weatherlink.com 1.10,2013-06-23 10:55:00,
2013-06-23 06:10:00,62.5,56.0,29.64,SE,140,0.0,10.0,79,0.00,,,0.00,0,weatherlink.com 1.10,2013-06-23 11:10:00,
2013-06-23 06:25:00,62.5,56.0,29.64,East,86,0.0,6.0,79,0.00,,,0.00,0,weatherlink.com 1.10,2013-06-23 11:25:00,
2013-06-23 06:40:00,62.2,56.0,29.66,East,98,0.0,0.0,80,0.00,,,0.00,9,weatherlink.com 1.10,2013-06-23 11:40:00,
2013-06-23 06:55:00,61.8,56.0,29.70,WSW,240,1.0,8.0,80,0.00,,,0.00,26,weatherlink.com 1.10,2013-06-23 11:55:00,
2013-06-23 07:10:00,62.0,56.0,29.70,WNW,300,0.0,5.0,80,0.00,,,0.00,58,weatherlink.com 1.10,2013-06-23 12:10:00,
2013-06-23 07:25:00,61.6,56.0,29.70,WNW,296,0.0,4.0,83,0.00,,,0.00,77,weatherlink.com 1.10,2013-06-23 12:25:00,
2013-06-23 07:40:00,61.9,57.0,29.70,WNW,296,0.0,6.0,85,0.00,,,0.00,104,weatherlink.com 1.10,2013-06-23 12:40:00,
2013-06-23 07:55:00,62.9,58.0,29.71,WNW,294,0.0,5.0,84,0.00,,,0.00,171,weatherlink.com 1.10,2013-06-23 12:55:00,
2013-06-23 08:10:00,64.4,58.0,29.71,NW,319,0.0,5.0,80,0.00,,,0.00,220,weatherlink.com 1.10,2013-06-23 13:10:00,
2013-06-23 08:25:00,66.1,58.0,29.71,NNW,327,0.0,8.0,76,0.00,,,0.00,258,weatherlink.com 1.10,2013-06-23 13:25:00,
2013-06-23 08:40:00,67.2,58.0,29.72,NW,305,0.0,9.0,73,0.00,,,0.00,311,weatherlink.com 1.10,2013-06-23 13:40:00,
2013-06-23 20:09:00,83.7,63.0,29.63,East,84,14.0,18.0,50,0.00,,,0.00,109,weatherlink.com 1.10,2013-06-24 01:09:00,
2013-06-23 20:26:00,83.3,63.0,29.63,ENE,78,13.0,17.0,51,0.00,,,0.00,53,weatherlink.com 1.10,2013-06-24 01:26:00,
2013-06-23 20:41:00,81.9,64.0,29.63,ENE,71,15.0,19.0,55,0.00,,,0.00,18,weatherlink.com 1.10,2013-06-24 01:41:00,
2013-06-23 20:56:00,80.5,64.0,29.63,NE,50,9.0,17.0,58,0.00,,,0.00,7,weatherlink.com 1.10,2013-06-24 01:56:00,
2013-06-23 21:11:00,79.2,65.0,29.64,ENE,74,8.0,15.0,61,0.00,,,0.00,0,weatherlink.com 1.10,2013-06-24 02:11:00,
2013-06-23 21:26:00,78.1,65.0,29.65,ENE,76,8.0,17.0,64,0.00,,,0.00,0,weatherlink.com 1.10,2013-06-24 02:26:00,
2013-06-23 21:41:00,76.8,65.0,29.65,ENE,67,5.0,13.0,67,0.00,,,0.00,0,weatherlink.com 1.10,2013-06-24 02:41:00,
2013-06-23 21:56:00,75.8,65.0,29.65,ENE,76,9.0,11.0,70,0.00,,,0.00,0,weatherlink.com 1.10,2013-06-24 02:56:00,
2013-06-23 22:11:00,75.0,66.0,29.65,ENE,76,10.0,21.0,73,0.00,,,0.00,0,weatherlink.com 1.10,2013-06-24 03:11:00,
2013-06-23 22:26:00,74.3,66.0,29.65,East,84,13.0,18.0,75,0.00,,,0.00,0,weatherlink.com 1.10,2013-06-24 03:26:00,
2013-06-23 22:41:00,73.7,66.0,29.66,East,84,15.0,16.0,77,0.00,,,0.00,0,weatherlink.com 1.10,2013-06-24 03:41:00,
2013-06-23 22:56:00,73.2,66.0,29.66,ENE,74,9.0,14.0,78,0.00,,,0.00,0,weatherlink.com 1.10,2013-06-24 03:56:00,
2013-06-23 23:11:00,73.1,66.0,29.65,ENE,78,16.0,18.0,78,0.00,,,0.00,0,weatherlink.com 1.10,2013-06-24 04:11:00,
2013-06-23 23:26:00,72.8,66.0,29.65,ENE,75,10.0,17.0,79,0.00,,,0.00,0,weatherlink.com 1.10,2013-06-24 04:26:00,
2013-06-23 23:41:00,72.4,66.0,29.64,ENE,76,12.0,17.0,80,0.00,,,0.00,0,weatherlink.com 1.10,2013-06-24 04:41:00,
2013-06-23 23:56:00,72.2,66.0,29.63,East,88,14.0,17.0,81,0.00,,,0.00,0,weatherlink.com 1.10,2013-06-24 04:56:00,